createdAt,value
2017-11-01T00:02:26.816Z,77.20
2017-11-01T00:04:55.736Z,77.40
2017-11-01T00:07:23.894Z,77.40
2017-11-01T00:09:52.031Z,77.60
2017-11-01T00:12:20.213Z,77.60
2017-11-01T00:14:49.107Z,77.90
2017-11-01T00:17:18.111Z,77.70
2017-11-01T00:19:47.007Z,77.50
2017-11-01T00:22:15.165Z,77.40
2017-11-01T00:24:44.067Z,77.70
2017-11-01T00:27:12.283Z,77.70
2017-11-01T00:29:40.485Z,77.10
2017-11-01T00:32:08.678Z,77.60
2017-11-01T00:34:37.646Z,77.60
2017-11-01T00:37:05.835Z,77.60
2017-11-01T00:39:34.776Z,77.40
2017-11-01T00:42:02.915Z,77.40
2017-11-01T00:44:31.838Z,77.40
2017-11-01T00:46:59.985Z,77.40
2017-11-01T00:49:28.907Z,77.60
2017-11-01T00:51:57.039Z,77.50
2017-11-01T00:54:25.966Z,77.70
2017-11-01T00:56:54.094Z,77.70
2017-11-01T00:59:23.038Z,77.40
2017-11-01T01:01:51.172Z,77.40
2017-11-01T01:04:20.091Z,77.70
2017-11-01T01:06:48.232Z,77.70
2017-11-01T01:09:16.390Z,77.90
2017-11-01T01:11:44.536Z,77.70
2017-11-01T01:14:12.715Z,77.80
2017-11-01T01:16:40.868Z,78.00
2017-11-01T01:19:09.035Z,78.40
2017-11-01T01:21:37.213Z,77.40
2017-11-01T01:24:05.380Z,78.00
2017-11-01T01:26:33.525Z,78.50
2017-11-01T01:29:02.455Z,79.40
2017-11-01T01:31:30.591Z,79.20
2017-11-01T01:33:59.514Z,78.50
2017-11-01T01:36:27.655Z,78.40
2017-11-01T01:38:55.807Z,78.10
2017-11-01T01:41:23.939Z,78.30
2017-11-01T01:43:52.111Z,78.80
2017-11-01T01:46:20.266Z,78.60
2017-11-01T01:48:48.410Z,78.80
2017-11-01T01:51:16.571Z,78.80
2017-11-01T01:53:44.700Z,78.80
2017-11-01T01:56:12.851Z,78.60
2017-11-01T01:58:41.758Z,79.10
2017-11-01T02:01:09.910Z,79.10
2017-11-01T02:03:38.803Z,78.50
2017-11-01T02:06:06.980Z,78.50
2017-11-01T02:08:35.879Z,78.80
2017-11-01T02:11:04.037Z,78.80
2017-11-01T02:13:32.935Z,78.30
2017-11-01T02:16:01.100Z,78.30
2017-11-01T02:18:30.013Z,78.90
2017-11-01T02:20:58.168Z,78.80
2017-11-01T02:23:27.088Z,78.60
2017-11-01T02:25:55.237Z,78.60
2017-11-01T02:28:24.127Z,78.90
2017-11-01T02:30:53.041Z,79.40
2017-11-01T02:33:21.180Z,79.30
2017-11-01T02:35:50.099Z,80.10
2017-11-01T02:38:18.228Z,80.10
2017-11-01T02:40:46.391Z,80.30
2017-11-01T02:43:14.528Z,80.30
2017-11-01T02:45:42.693Z,80.50
2017-11-01T02:48:10.826Z,79.90
2017-11-01T02:50:38.992Z,79.60
2017-11-01T02:53:07.135Z,79.70
2017-11-01T02:55:35.303Z,80.10
2017-11-01T02:58:03.470Z,80.20
2017-11-01T03:00:31.679Z,80.60
2017-11-01T03:02:59.831Z,80.20
2017-11-01T03:05:27.962Z,80.50
2017-11-01T03:07:56.879Z,80.10
2017-11-01T03:10:25.003Z,80.10
2017-11-01T03:12:53.167Z,79.80
2017-11-01T03:15:21.295Z,79.30
2017-11-01T03:17:49.491Z,79.00
2017-11-01T03:20:17.626Z,78.70
2017-11-01T03:22:45.791Z,79.60
2017-11-01T03:25:13.964Z,80.00
2017-11-01T03:27:42.882Z,80.40
2017-11-01T03:30:11.010Z,80.40
2017-11-01T03:32:39.158Z,80.00
2017-11-01T03:35:07.283Z,79.80
2017-11-01T03:37:35.450Z,79.50
2017-11-01T03:40:04.337Z,78.70
2017-11-01T03:42:33.274Z,78.60
2017-11-01T03:45:01.419Z,78.50
2017-11-01T03:47:29.572Z,79.00
2017-11-01T03:49:58.468Z,79.90
2017-11-01T03:52:27.404Z,79.90
2017-11-01T03:54:55.539Z,79.90
2017-11-01T03:57:23.733Z,80.30
2017-11-01T03:59:51.955Z,80.40
2017-11-01T04:02:20.141Z,80.50
2017-11-01T04:04:48.317Z,80.70
2017-11-01T04:07:17.233Z,81.10
2017-11-01T04:09:46.150Z,81.20
2017-11-01T04:12:14.275Z,81.10
2017-11-01T04:14:43.214Z,81.40
2017-11-01T04:17:11.351Z,81.40
2017-11-01T04:19:39.500Z,80.90
2017-11-01T04:22:07.641Z,81.20
2017-11-01T04:24:35.795Z,81.30
2017-11-01T04:27:03.934Z,81.20
2017-11-01T04:29:32.101Z,80.40
2017-11-01T04:32:00.262Z,80.80
2017-11-01T04:34:28.434Z,81.20
2017-11-01T04:36:56.579Z,81.40
2017-11-01T04:39:24.751Z,81.20
2017-11-01T04:41:52.897Z,81.20
2017-11-01T04:44:21.819Z,81.50
2017-11-01T04:46:49.953Z,81.50
2017-11-01T04:49:18.882Z,81.00
2017-11-01T04:51:47.038Z,81.00
2017-11-01T04:54:15.225Z,81.00
2017-11-01T04:56:43.394Z,81.20
2017-11-01T04:59:11.571Z,81.20
2017-11-01T05:01:54.586Z,81.20
2017-11-01T05:04:22.755Z,81.60
2017-11-01T05:06:50.887Z,81.60
2017-11-01T05:09:19.054Z,81.20
2017-11-01T05:11:50.098Z,81.60
2017-11-01T05:14:18.265Z,81.50
2017-11-01T05:16:46.412Z,81.70
2017-11-01T05:19:16.399Z,81.40
2017-11-01T05:21:45.337Z,81.00
2017-11-01T05:24:13.508Z,81.00
2017-11-01T05:26:41.643Z,80.90
2017-11-01T05:29:09.806Z,81.20
2017-11-01T05:31:38.722Z,81.10
2017-11-01T05:34:06.897Z,81.10
2017-11-01T05:36:35.046Z,80.80
2017-11-01T05:39:03.975Z,80.80
2017-11-01T05:41:32.130Z,80.80
2017-11-01T05:44:00.294Z,80.70
2017-11-01T05:46:29.203Z,81.30
2017-11-01T05:48:57.372Z,82.00
2017-11-01T05:51:25.524Z,81.40
2017-11-01T05:53:54.468Z,81.70
2017-11-01T05:56:22.627Z,81.60
2017-11-01T05:58:50.807Z,81.50
2017-11-01T06:01:18.958Z,81.60
2017-11-01T06:03:47.115Z,81.70
2017-11-01T06:06:16.019Z,81.50
2017-11-01T06:08:44.202Z,81.40
2017-11-01T06:11:12.344Z,81.40
2017-11-01T06:13:41.277Z,81.10
2017-11-01T06:16:09.458Z,81.20
2017-11-01T06:18:37.595Z,81.60
2017-11-01T06:21:06.516Z,81.20
2017-11-01T06:23:34.653Z,81.10
2017-11-01T06:26:03.574Z,81.60
2017-11-01T06:28:31.744Z,81.40
2017-11-01T06:30:59.926Z,81.80
2017-11-01T06:33:28.067Z,82.00
2017-11-01T06:35:57.003Z,82.50
2017-11-01T06:38:25.158Z,82.50
2017-11-01T06:40:53.340Z,82.50
2017-11-01T06:43:21.496Z,82.20
2017-11-01T06:45:49.674Z,82.30
2017-11-01T06:48:17.802Z,82.20
2017-11-01T06:50:45.998Z,82.50
2017-11-01T06:53:14.930Z,82.90
2017-11-01T06:55:43.134Z,82.90
2017-11-01T06:58:11.276Z,83.00
2017-11-01T07:00:39.442Z,82.90
2017-11-01T07:03:07.614Z,83.10
2017-11-01T07:05:35.746Z,83.20
2017-11-01T07:08:03.927Z,83.10
2017-11-01T07:10:32.834Z,83.00
2017-11-01T07:13:01.783Z,82.60
2017-11-01T07:15:29.939Z,82.60
2017-11-01T07:17:58.110Z,82.80
2017-11-01T07:20:26.251Z,82.50
2017-11-01T07:22:54.419Z,82.50
2017-11-01T07:25:23.337Z,82.40
2017-11-01T07:27:57.135Z,82.40
2017-11-01T07:30:30.899Z,82.50
2017-11-01T07:33:04.663Z,82.90
2017-11-01T07:35:39.159Z,82.80
2017-11-01T07:38:12.998Z,82.80
2017-11-01T07:40:46.748Z,83.00
2017-11-01T07:43:20.459Z,83.20
2017-11-01T07:45:54.159Z,83.00
2017-11-01T07:48:27.838Z,82.70
2017-11-01T07:51:01.556Z,82.50
2017-11-01T07:53:35.331Z,82.90
2017-11-01T07:56:09.010Z,82.80
2017-11-01T07:58:42.678Z,82.50
2017-11-01T08:01:16.377Z,82.50
2017-11-01T08:03:50.034Z,82.80
2017-11-01T08:06:23.696Z,82.50
2017-11-01T08:08:51.858Z,82.50
2017-11-01T08:11:20.000Z,82.30
2017-11-01T08:13:53.798Z,82.30
2017-11-01T08:16:27.541Z,82.50
2017-11-01T08:19:01.274Z,82.20
2017-11-01T08:21:35.062Z,82.50
2017-11-01T08:24:03.227Z,82.40
2017-11-01T08:26:32.119Z,82.50
2017-11-01T08:29:01.054Z,82.40
2017-11-01T08:31:29.207Z,82.30
2017-11-01T08:33:57.395Z,82.10
2017-11-01T08:36:25.531Z,82.10
2017-11-01T08:38:54.434Z,82.10
2017-11-01T08:41:22.593Z,82.10
2017-11-01T08:43:51.611Z,82.30
2017-11-01T08:46:19.787Z,82.20
2017-11-01T08:48:47.943Z,82.60
2017-11-01T08:51:16.299Z,82.30
2017-11-01T08:53:44.446Z,82.20
2017-11-01T08:56:12.623Z,82.70
2017-11-01T08:58:40.755Z,82.40
2017-11-01T09:01:08.922Z,82.60
2017-11-01T09:03:37.090Z,82.30
2017-11-01T09:06:05.263Z,81.70
2017-11-01T09:08:34.172Z,80.90
2017-11-01T09:11:02.341Z,80.90
2017-11-01T09:13:30.478Z,81.10
2017-11-01T09:15:58.680Z,81.60
2017-11-01T09:18:26.824Z,81.90
2017-11-01T09:20:54.977Z,81.90
2017-11-01T09:23:23.304Z,81.80
2017-11-01T09:25:51.491Z,81.40
2017-11-01T09:28:19.633Z,81.60
2017-11-01T09:30:48.566Z,81.30
2017-11-01T09:33:16.693Z,81.20
2017-11-01T09:35:44.879Z,81.30
2017-11-01T09:38:13.796Z,81.30
2017-11-01T09:40:41.938Z,81.30
2017-11-01T09:43:10.871Z,81.30
2017-11-01T09:45:39.004Z,81.30
2017-11-01T09:48:07.927Z,81.00
2017-11-01T09:50:36.071Z,81.10
2017-11-01T09:53:04.998Z,81.40
2017-11-01T09:55:33.137Z,81.40
2017-11-01T09:58:02.088Z,81.10
2017-11-01T10:00:30.235Z,81.10
2017-11-01T10:02:58.395Z,80.90
2017-11-01T10:05:26.540Z,81.20
2017-11-01T10:07:54.694Z,80.30
2017-11-01T10:10:22.835Z,80.50
2017-11-01T10:12:51.004Z,80.90
2017-11-01T10:15:19.136Z,80.90
2017-11-01T10:17:47.294Z,80.50
2017-11-01T10:20:15.422Z,80.80
2017-11-01T10:22:43.581Z,80.70
2017-11-01T10:25:11.719Z,80.40
2017-11-01T10:27:39.875Z,80.90
2017-11-01T10:30:08.018Z,80.90
2017-11-01T10:32:36.178Z,81.00
2017-11-01T10:35:04.333Z,81.10
2017-11-01T10:37:33.263Z,80.60
2017-11-01T10:40:01.406Z,80.50
2017-11-01T10:42:29.575Z,80.90
2017-11-01T10:44:58.479Z,80.40
2017-11-01T10:47:26.656Z,80.40
2017-11-01T10:49:54.795Z,80.00
2017-11-01T10:52:22.946Z,80.40
2017-11-01T10:54:51.092Z,80.60
2017-11-01T10:57:19.254Z,80.50
2017-11-01T10:59:47.382Z,80.40
2017-11-01T11:02:15.544Z,80.20
2017-11-01T11:04:43.678Z,80.60
2017-11-01T11:07:11.850Z,80.90
2017-11-01T11:09:39.983Z,80.30
2017-11-01T11:12:08.190Z,79.90
2017-11-01T11:14:36.322Z,80.00
2017-11-01T11:17:04.490Z,80.10
2017-11-01T11:19:32.651Z,80.00
2017-11-01T11:22:00.832Z,79.80
2017-11-01T11:24:29.767Z,79.50
2017-11-01T11:26:57.935Z,79.50
2017-11-01T11:29:26.830Z,80.30
2017-11-01T11:31:55.758Z,80.50
2017-11-01T11:34:23.937Z,80.40
2017-11-01T11:36:52.127Z,80.00
2017-11-01T11:39:20.287Z,80.10
2017-11-01T11:41:48.448Z,80.20
2017-11-01T11:44:16.634Z,80.40
2017-11-01T11:46:44.774Z,80.70
2017-11-01T11:49:12.938Z,80.40
2017-11-01T11:51:41.081Z,80.40
2017-11-01T11:54:10.022Z,80.30
2017-11-01T11:56:38.171Z,80.10
2017-11-01T11:59:07.094Z,79.50
2017-11-01T12:01:35.256Z,79.40
2017-11-01T12:04:03.407Z,79.30
2017-11-01T12:06:32.309Z,79.40
2017-11-01T12:09:01.223Z,79.00
2017-11-01T12:11:29.354Z,78.90
2017-11-01T12:13:58.387Z,77.90
2017-11-01T12:16:26.526Z,77.90
2017-11-01T12:18:55.439Z,78.00
2017-11-01T12:21:23.598Z,78.00
2017-11-01T12:23:51.745Z,77.80
2017-11-01T12:26:19.909Z,77.40
2017-11-01T12:28:48.045Z,76.60
2017-11-01T12:31:16.201Z,76.80
2017-11-01T12:33:44.355Z,77.10
2017-11-01T12:36:13.283Z,77.30
2017-11-01T12:38:41.418Z,77.20
2017-11-01T12:41:10.369Z,77.10
2017-11-01T12:43:38.495Z,77.10
2017-11-01T12:46:07.428Z,76.70
2017-11-01T12:48:36.370Z,76.30
2017-11-01T12:51:05.299Z,75.90
2017-11-01T12:53:33.430Z,75.90
2017-11-01T12:56:02.359Z,75.20
2017-11-01T12:58:30.500Z,75.20
2017-11-01T13:00:58.673Z,75.30
2017-11-01T13:03:27.567Z,74.10
2017-11-01T13:05:56.516Z,73.70
2017-11-01T13:08:24.671Z,73.70
2017-11-01T13:10:52.826Z,73.60
2017-11-01T13:13:20.987Z,74.30
2017-11-01T13:15:49.890Z,74.30
2017-11-01T13:18:18.054Z,74.30
2017-11-01T13:20:46.961Z,74.60
2017-11-01T13:23:15.114Z,74.60
2017-11-01T13:25:44.029Z,73.90
2017-11-01T13:28:12.193Z,73.90
2017-11-01T13:30:40.345Z,73.50
2017-11-01T13:33:09.272Z,74.50
2017-11-01T13:35:37.415Z,74.50
2017-11-01T13:38:05.605Z,75.10
2017-11-01T13:40:33.735Z,75.50
2017-11-01T13:43:04.144Z,75.30
2017-11-01T13:45:32.466Z,75.60
2017-11-01T13:48:01.414Z,75.80
2017-11-01T13:50:29.547Z,75.80
2017-11-01T13:52:57.702Z,75.80
2017-11-01T13:55:26.605Z,75.80
2017-11-01T13:57:55.174Z,75.70
2017-11-01T14:00:24.070Z,76.30
2017-11-01T14:02:52.999Z,75.70
2017-11-01T14:05:21.138Z,75.70
2017-11-01T14:07:51.042Z,76.50
2017-11-01T14:10:20.360Z,76.20
2017-11-01T14:12:48.526Z,76.20
2017-11-01T14:15:17.440Z,75.80
2017-11-01T14:17:45.587Z,75.80
2017-11-01T14:20:14.510Z,76.60
2017-11-01T14:22:42.649Z,76.60
2017-11-01T14:25:11.570Z,76.60
2017-11-01T14:27:39.703Z,76.50
2017-11-01T14:30:07.859Z,76.30
2017-11-01T14:32:35.990Z,76.50
2017-11-01T14:35:04.175Z,76.50
2017-11-01T14:37:32.307Z,76.50
2017-11-01T14:40:01.223Z,77.30
2017-11-01T14:42:30.391Z,77.20
2017-11-01T14:44:59.650Z,77.70
2017-11-01T14:47:32.226Z,77.70
2017-11-01T14:50:01.167Z,77.90
2017-11-01T14:52:37.683Z,77.80
2017-11-01T14:55:07.457Z,77.80
2017-11-01T14:57:35.618Z,77.60
2017-11-01T15:00:07.180Z,77.50
2017-11-01T15:02:35.716Z,77.50
2017-11-01T15:05:03.910Z,77.70
2017-11-01T15:07:37.638Z,77.20
2017-11-01T15:10:06.599Z,78.00
2017-11-01T15:12:42.021Z,77.90
2017-11-01T15:15:10.181Z,77.60
2017-11-01T15:17:38.323Z,77.70
2017-11-01T15:20:07.250Z,77.70
2017-11-01T15:22:35.394Z,77.60
2017-11-01T15:25:04.317Z,77.80
2017-11-01T15:27:32.455Z,77.80
2017-11-01T15:30:00.626Z,78.00
2017-11-01T15:32:29.518Z,78.00
2017-11-01T15:34:58.418Z,77.90
2017-11-01T15:37:27.350Z,77.70
2017-11-01T15:39:55.490Z,78.40
2017-11-01T15:42:23.653Z,77.40
2017-11-01T15:44:52.536Z,76.60
2017-11-01T15:47:21.458Z,77.00
2017-11-01T15:49:49.677Z,77.00
2017-11-01T15:52:19.678Z,77.30
2017-11-01T15:54:47.935Z,77.90
2017-11-01T15:57:16.118Z,78.30
2017-11-01T15:59:44.284Z,78.40
2017-11-01T16:02:12.467Z,78.10
2017-11-01T16:04:40.625Z,78.00
2017-11-01T16:07:08.812Z,78.20
2017-11-01T16:09:36.967Z,78.50
2017-11-01T16:12:05.606Z,78.90
2017-11-01T16:14:33.779Z,79.20
2017-11-01T16:17:01.989Z,79.00
2017-11-01T16:19:30.285Z,79.20
2017-11-01T16:21:58.487Z,78.90
2017-11-01T16:24:26.673Z,79.60
2017-11-01T16:26:54.882Z,79.30
2017-11-01T16:29:23.048Z,79.40
2017-11-01T16:31:52.404Z,79.80
2017-11-01T16:34:20.572Z,79.80
2017-11-01T16:36:48.731Z,79.70
2017-11-01T16:39:16.911Z,79.30
2017-11-01T16:41:50.632Z,79.50
2017-11-01T16:44:19.237Z,79.60
2017-11-01T16:46:47.405Z,79.50
2017-11-01T16:49:15.587Z,79.60
2017-11-01T16:51:43.758Z,79.80
2017-11-01T16:54:17.989Z,80.10
2017-11-01T16:56:52.888Z,80.10
2017-11-01T16:59:22.915Z,80.60
2017-11-01T17:01:51.071Z,80.60
2017-11-01T17:04:20.199Z,80.50
2017-11-01T17:06:50.215Z,80.30
2017-11-01T17:09:18.416Z,80.20
2017-11-01T17:11:46.572Z,80.90
2017-11-01T17:14:22.032Z,81.10
2017-11-01T17:16:52.183Z,81.00
2017-11-01T17:19:20.368Z,80.90
2017-11-01T17:21:58.148Z,81.10
2017-11-01T17:24:38.883Z,80.80
2017-11-01T17:27:07.832Z,81.20
2017-11-01T17:29:36.027Z,81.20
2017-11-01T17:32:04.202Z,81.30
2017-11-01T17:34:32.402Z,81.00
2017-11-01T17:37:01.337Z,81.40
2017-11-01T17:39:29.531Z,81.40
2017-11-01T17:41:59.747Z,81.70
2017-11-01T17:44:29.627Z,81.80
2017-11-01T17:47:08.181Z,81.50
2017-11-01T17:49:37.283Z,80.90
2017-11-01T17:52:05.473Z,81.30
2017-11-01T17:54:33.673Z,81.70
2017-11-01T17:57:02.614Z,81.40
2017-11-01T17:59:30.804Z,81.40
2017-11-01T18:01:58.982Z,81.20
2017-11-01T18:04:27.181Z,81.10
2017-11-01T18:06:56.141Z,81.50
2017-11-01T18:09:24.324Z,81.50
2017-11-01T18:11:52.529Z,81.40
2017-11-01T18:14:20.716Z,81.70
2017-11-01T18:16:48.917Z,81.70
2017-11-01T18:19:17.104Z,81.40
2017-11-01T18:21:45.299Z,81.30
2017-11-01T18:24:13.475Z,81.20
2017-11-01T18:26:41.683Z,81.10
2017-11-01T18:29:10.090Z,81.30
2017-11-01T18:31:38.339Z,80.70
2017-11-01T18:34:06.529Z,80.60
2017-11-01T18:36:34.742Z,80.10
2017-11-01T18:39:02.923Z,79.90
2017-11-01T18:41:31.143Z,80.20
2017-11-01T18:43:59.355Z,80.30
2017-11-01T18:46:27.575Z,80.30
2017-11-01T18:48:55.804Z,79.50
2017-11-01T18:51:24.815Z,79.90
2017-11-01T18:53:53.048Z,79.90
2017-11-01T18:56:21.287Z,80.30
2017-11-01T18:58:50.237Z,80.40
2017-11-01T19:01:18.450Z,80.40
2017-11-01T19:03:46.664Z,79.90
2017-11-01T19:06:14.863Z,79.40
2017-11-01T19:08:43.063Z,79.20
2017-11-01T19:11:11.283Z,79.40
2017-11-01T19:13:39.514Z,79.30
2017-11-01T19:16:08.748Z,79.80
2017-11-01T19:18:36.949Z,79.80
2017-11-01T19:21:05.192Z,79.70
2017-11-01T19:23:34.162Z,79.60
2017-11-01T19:26:02.357Z,79.60
2017-11-01T19:28:31.491Z,79.80
2017-11-01T19:30:59.691Z,79.80
2017-11-01T19:33:27.909Z,80.10
2017-11-01T19:35:56.135Z,80.40
2017-11-01T19:38:24.438Z,80.20
2017-11-01T19:40:52.681Z,79.50
2017-11-01T19:43:20.907Z,79.70
2017-11-01T19:45:49.095Z,79.60
2017-11-01T19:48:17.347Z,79.50
2017-11-01T19:50:46.340Z,79.90
2017-11-01T19:53:15.350Z,79.50
2017-11-01T19:55:44.816Z,79.50
2017-11-01T19:58:13.058Z,79.50
2017-11-01T20:00:41.907Z,79.30
2017-11-01T20:03:10.788Z,78.70
2017-11-01T20:05:39.783Z,78.80
2017-11-01T20:08:07.985Z,78.80
2017-11-01T20:10:36.163Z,77.90
2017-11-01T20:13:04.418Z,77.80
2017-11-01T20:15:33.384Z,78.20
2017-11-01T20:18:01.609Z,78.00
2017-11-01T20:20:29.804Z,78.30
2017-11-01T20:22:58.004Z,78.00
2017-11-01T20:25:26.171Z,77.80
2017-11-01T20:28:09.639Z,77.90
2017-11-01T20:30:47.354Z,78.50
2017-11-01T20:33:20.807Z,78.80
2017-11-01T20:35:57.774Z,77.80
2017-11-01T20:38:26.598Z,77.80
2017-11-01T20:41:05.883Z,78.60
2017-11-01T20:43:42.724Z,79.20
2017-11-01T20:46:18.554Z,79.60
2017-11-01T20:48:46.744Z,80.80
2017-11-01T20:51:15.687Z,80.30
2017-11-01T20:53:43.883Z,80.30
2017-11-01T20:56:12.258Z,80.20
2017-11-01T20:58:40.533Z,80.20
2017-11-01T21:01:08.708Z,80.20
2017-11-01T21:03:36.911Z,80.10
2017-11-01T21:06:05.883Z,79.80
2017-11-01T21:08:34.107Z,79.80
2017-11-01T21:11:02.278Z,79.20
2017-11-01T21:13:30.972Z,79.10
2017-11-01T21:15:59.826Z,79.00
2017-11-01T21:18:28.254Z,78.80
2017-11-01T21:20:57.503Z,78.60
2017-11-01T21:23:25.954Z,78.70
2017-11-01T21:25:54.158Z,78.60
2017-11-01T21:28:25.601Z,78.30
2017-11-01T21:30:54.046Z,78.30
2017-11-01T21:33:22.244Z,78.40
2017-11-01T21:35:50.446Z,78.50
2017-11-01T21:38:19.463Z,77.70
2017-11-01T21:40:47.675Z,77.60
2017-11-01T21:43:15.968Z,77.10
2017-11-01T21:45:44.167Z,77.30
2017-11-01T21:48:13.130Z,77.50
2017-11-01T21:50:41.345Z,77.50
2017-11-01T21:53:09.531Z,77.30
2017-11-01T21:55:37.734Z,77.00
2017-11-01T21:58:05.909Z,76.70
2017-11-01T22:00:34.156Z,77.10
2017-11-01T22:03:02.350Z,77.40
2017-11-01T22:05:30.566Z,77.50
2017-11-01T22:07:58.755Z,77.30
2017-11-01T22:10:27.738Z,77.40
2017-11-01T22:12:55.927Z,77.40
2017-11-01T22:15:24.159Z,77.90
2017-11-01T22:17:52.338Z,77.80
2017-11-01T22:20:31.391Z,77.60
2017-11-01T22:23:07.075Z,76.80
2017-11-01T22:25:35.286Z,77.10
2017-11-01T22:28:03.513Z,76.80
2017-11-01T22:30:32.463Z,76.90
2017-11-01T22:33:00.663Z,76.90
2017-11-01T22:35:28.841Z,76.40
2017-11-01T22:37:57.039Z,75.90
2017-11-01T22:40:25.235Z,76.40
2017-11-01T22:42:53.444Z,76.20
2017-11-01T22:45:21.654Z,75.70
2017-11-01T22:47:50.629Z,76.20
2017-11-01T22:50:18.838Z,76.20
2017-11-01T22:52:47.048Z,76.50
2017-11-01T22:55:16.634Z,75.80
2017-11-01T22:57:44.835Z,75.00
2017-11-01T23:00:13.003Z,75.40
2017-11-01T23:02:41.222Z,75.40
2017-11-01T23:05:10.160Z,75.40
2017-11-01T23:07:38.360Z,75.40
2017-11-01T23:10:06.564Z,74.90
2017-11-01T23:12:35.542Z,73.90
2017-11-01T23:15:04.692Z,73.90
2017-11-01T23:17:32.896Z,73.90
2017-11-01T23:20:01.079Z,73.70
2017-11-01T23:22:29.269Z,73.70
2017-11-01T23:24:57.400Z,73.60
2017-11-01T23:27:25.558Z,73.00
2017-11-01T23:29:53.692Z,73.10
2017-11-01T23:32:21.842Z,72.90
2017-11-01T23:34:49.967Z,73.40
2017-11-01T23:37:18.850Z,73.20
2017-11-01T23:39:47.771Z,73.30
2017-11-01T23:42:15.909Z,73.20
2017-11-01T23:44:44.067Z,73.20
2017-11-01T23:47:12.220Z,73.00
2017-11-01T23:49:40.378Z,73.20
2017-11-01T23:52:08.510Z,73.20
2017-11-01T23:54:36.702Z,73.20
2017-11-01T23:57:04.920Z,73.40
2017-11-01T23:59:33.077Z,73.40
